Time;durP1;ratioP1;P1;durP2;ratioP2;P2;SDS_P1;SDS_P2;PMS_P1;PMS_P2;Temp;Humidity;BMP_temperature;BMP_pressure;BME280_temperature;BME280_humidity;BME280_pressure;Samples;Min_cycle;Max_cycle;Signal;HPM_P1;HPM_P2
2024/03/18 00:02:19;;;;;;;1.80;1.00;;;;;;;7.18;69.69;101432.47;5054003;28;20486;-64
2024/03/18 00:04:44;;;;;;;0.60;0.60;;;;;;;7.23;69.44;101421.63;5055154;28;20029;-65
2024/03/18 00:07:10;;;;;;;0.32;0.32;;;;;;;7.15;69.98;101421.59;5055904;28;20044;-65
2024/03/18 00:09:36;;;;;;;0.40;0.40;;;;;;;7.00;70.68;101414.81;5067366;28;20049;-64
2024/03/18 00:12:02;;;;;;;0.65;0.65;;;;;;;7.12;70.07;101414.97;5052971;28;20123;-64
2024/03/18 00:14:27;;;;;;;0.85;0.70;;;;;;;7.10;70.33;101411.03;5071329;28;20107;-64
2024/03/18 00:16:53;;;;;;;0.75;0.65;;;;;;;7.16;70.24;101417.84;5057401;28;20588;-65
2024/03/18 00:19:19;;;;;;;1.50;0.90;;;;;;;7.27;69.88;101414.53;5050161;28;20036;-65
2024/03/18 00:21:44;;;;;;;0.40;0.40;;;;;;;7.17;70.10;101406.81;5051091;28;20033;-64
2024/03/18 00:24:10;;;;;;;2.78;0.70;;;;;;;7.15;70.02;101408.22;5057053;28;20033;-64
2024/03/18 00:26:36;;;;;;;1.15;0.70;;;;;;;7.15;69.93;101408.22;5049570;28;20041;-64
2024/03/18 00:29:01;;;;;;;1.38;0.98;;;;;;;6.88;71.32;101397.75;5057825;28;20513;-64
2024/03/18 00:31:28;;;;;;;0.70;0.70;;;;;;;6.95;71.11;101395.44;5056125;28;20040;-64
2024/03/18 00:33:53;;;;;;;0.90;0.70;;;;;;;7.01;71.27;101396.84;5056306;28;20104;-64
2024/03/18 00:36:20;;;;;;;1.25;0.75;;;;;;;7.03;70.87;101390.06;5066936;28;20620;-64
2024/03/18 00:38:46;;;;;;;1.90;0.82;;;;;;;6.95;70.96;101392.75;5051503;28;20538;-64
2024/03/18 00:43:58;;;;;;;0.60;0.60;;;;;;;6.65;72.30;101390.91;5069643;28;20029;-65
2024/03/18 00:46:23;;;;;;;1.30;0.80;;;;;;;6.73;71.54;101388.28;5051058;28;20295;-64
2024/03/18 00:48:49;;;;;;;2.65;0.95;;;;;;;6.79;71.27;101383.56;5055873;28;20170;-64
2024/03/18 00:51:14;;;;;;;0.60;0.60;;;;;;;6.78;72.31;101385.44;5051884;28;20036;-65
2024/03/18 00:53:40;;;;;;;1.95;1.08;;;;;;;6.75;72.37;101383.41;5064955;28;20036;-65
2024/03/18 00:56:06;;;;;;;0.60;0.60;;;;;;;6.97;71.14;101385.97;5049240;28;20605;-65
2024/03/18 00:58:33;;;;;;;1.60;0.70;;;;;;;6.82;71.40;101370.34;5057275;28;20048;-64
2024/03/18 01:00:59;;;;;;;0.60;0.60;;;;;;;6.70;71.78;101370.16;5071846;28;20452;-64
2024/03/18 01:03:24;;;;;;;0.70;0.68;;;;;;;6.35;73.14;101376.47;5053852;28;20031;-64
2024/03/18 01:05:50;;;;;;;0.63;0.63;;;;;;;6.56;73.03;101374.84;5054166;28;20104;-65
2024/03/18 01:08:15;;;;;;;1.02;0.90;;;;;;;6.43;73.42;101373.06;5049748;28;20063;-65
2024/03/18 01:10:41;;;;;;;1.48;0.52;;;;;;;6.52;73.50;101368.53;5053297;28;20017;-65
2024/03/18 01:13:11;;;;;;;0.55;0.55;;;;;;;6.65;72.52;101367.63;5069731;28;20037;-65
2024/03/18 01:15:37;;;;;;;0.60;0.60;;;;;;;6.49;73.07;101382.53;5063128;28;20752;-65
2024/03/18 01:18:05;;;;;;;0.50;0.50;;;;;;;6.69;71.44;101362.44;5052912;28;20410;-65
2024/03/18 01:20:32;;;;;;;1.05;0.75;;;;;;;6.85;71.37;101359.00;5066747;28;20021;-65
2024/03/18 01:23:05;;;;;;;1.17;0.98;;;;;;;6.81;71.04;101368.00;5066530;28;20441;-65
2024/03/18 01:25:32;;;;;;;1.02;1.00;;;;;;;6.54;72.34;101366.34;5064135;28;20486;-65
2024/03/18 01:27:58;;;;;;;1.30;0.90;;;;;;;6.57;72.37;101379.09;5048698;28;20028;-65
2024/03/18 01:30:23;;;;;;;0.88;0.85;;;;;;;6.63;71.52;101361.00;5059680;28;20055;-65
2024/03/18 01:32:49;;;;;;;0.73;0.57;;;;;;;6.47;71.54;101363.31;5065600;28;20029;-65
2024/03/18 01:35:15;;;;;;;1.90;0.80;;;;;;;6.27;73.23;101374.56;5069996;28;20028;-64
2024/03/18 01:37:43;;;;;;;1.20;0.55;;;;;;;6.42;72.99;101374.16;5052409;28;20074;-65
2024/03/18 01:40:13;;;;;;;0.93;0.90;;;;;;;6.27;73.25;101370.00;5064485;28;20029;-65
2024/03/18 01:42:39;;;;;;;0.50;0.50;;;;;;;6.25;73.41;101360.72;5058119;28;20033;-66
2024/03/18 01:45:05;;;;;;;1.45;0.57;;;;;;;6.43;73.11;101365.03;5058436;28;20161;-64
2024/03/18 01:47:31;;;;;;;0.60;0.60;;;;;;;6.39;72.90;101364.06;5052269;28;20520;-65
2024/03/18 01:49:56;;;;;;;0.60;0.60;;;;;;;6.50;72.91;101362.72;5048890;28;20020;-65
2024/03/18 01:52:23;;;;;;;0.60;0.50;;;;;;;6.52;72.44;101335.63;5068526;28;20036;-64
2024/03/18 01:54:49;;;;;;;1.58;1.10;;;;;;;6.41;73.36;101350.41;5047243;28;20460;-65
2024/03/18 01:57:15;;;;;;;0.77;0.70;;;;;;;6.56;72.71;101347.31;5049491;28;20120;-64
2024/03/18 01:59:41;;;;;;;1.17;0.80;;;;;;;6.50;71.87;101357.34;5039575;28;20028;-65
2024/03/18 02:02:07;;;;;;;1.30;0.57;;;;;;;6.31;72.92;101340.75;5057119;28;20013;-65
2024/03/18 02:04:33;;;;;;;0.50;0.50;;;;;;;6.30;73.31;101342.66;5051491;28;20066;-65
2024/03/18 02:06:58;;;;;;;0.77;0.77;;;;;;;6.38;72.80;101344.56;5050729;28;20533;-65
2024/03/18 02:09:27;;;;;;;1.58;1.42;;;;;;;6.26;74.27;101339.00;5051929;28;20056;-65
2024/03/18 02:11:54;;;;;;;0.50;0.50;;;;;;;6.13;74.34;101339.91;5051981;28;20025;-64
2024/03/18 02:14:20;;;;;;;1.02;0.50;;;;;;;5.98;75.38;101339.50;5050035;28;20469;-65
2024/03/18 02:16:45;;;;;;;1.00;0.80;;;;;;;6.26;74.36;101320.28;5049869;28;20056;-64
2024/03/18 02:19:11;;;;;;;0.68;0.63;;;;;;;6.27;74.46;101323.75;5072399;28;20119;-65
2024/03/18 02:21:37;;;;;;;0.73;0.70;;;;;;;6.21;74.05;101316.97;5039012;28;20064;-64
2024/03/18 02:24:06;;;;;;;1.17;0.75;;;;;;;6.10;74.83;101326.34;5053888;28;20081;-65
2024/03/18 02:26:32;;;;;;;1.35;0.60;;;;;;;6.28;74.13;101315.44;5054567;28;20041;-64
2024/03/18 02:28:58;;;;;;;0.40;0.40;;;;;;;6.19;74.41;101314.59;5068990;28;20490;-65
2024/03/18 02:31:26;;;;;;;1.23;0.80;;;;;;;6.13;74.90;101315.06;5049927;28;20090;-65
2024/03/18 02:33:52;;;;;;;0.65;0.57;;;;;;;6.28;74.58;101311.97;5055037;28;20453;-65
2024/03/18 02:36:20;;;;;;;0.93;0.60;;;;;;;5.96;75.81;101318.41;5050734;28;20036;-65
2024/03/18 02:38:46;;;;;;;0.68;0.60;;;;;;;6.14;75.91;101313.94;5050447;28;20033;-64
2024/03/18 02:41:11;;;;;;;0.60;0.60;;;;;;;6.13;74.62;101310.50;5050327;28;20036;-65
2024/03/18 02:43:37;;;;;;;0.77;0.70;;;;;;;6.10;75.08;101303.06;5051293;28;20074;-65
2024/03/18 02:46:07;;;;;;;4.40;0.80;;;;;;;6.00;75.77;101294.56;5066835;28;20445;-65
2024/03/18 02:48:32;;;;;;;0.75;0.50;;;;;;;6.07;75.47;101302.91;5069167;28;20078;-65
2024/03/18 02:50:58;;;;;;;0.95;0.95;;;;;;;5.88;75.43;101297.81;5063641;28;20382;-65
2024/03/18 02:53:23;;;;;;;0.65;0.57;;;;;;;5.69;77.82;101299.84;5066018;28;20383;-64
2024/03/18 02:55:49;;;;;;;1.33;0.68;;;;;;;5.76;77.69;101291.41;5053961;28;20039;-64
2024/03/18 02:58:17;;;;;;;0.73;0.60;;;;;;;5.94;76.28;101285.84;5063402;28;20078;-65
2024/03/18 03:00:42;;;;;;;0.50;0.50;;;;;;;5.75;76.50;101295.19;5048843;28;20028;-65
2024/03/18 03:03:07;;;;;;;1.38;0.63;;;;;;;5.87;76.70;101298.88;5047822;28;20021;-65
2024/03/18 03:05:33;;;;;;;0.80;0.60;;;;;;;5.80;76.56;101298.50;5066308;28;20024;-65
2024/03/18 03:07:58;;;;;;;5.32;0.75;;;;;;;5.91;76.29;101288.38;5050683;28;20037;-65
2024/03/18 03:10:24;;;;;;;1.13;0.80;;;;;;;5.91;76.45;101291.03;5069527;28;20029;-65
2024/03/18 03:12:50;;;;;;;0.82;0.60;;;;;;;6.01;75.95;101280.88;5053907;28;20037;-65
2024/03/18 03:15:15;;;;;;;0.47;0.47;;;;;;;5.95;76.27;101275.97;5054981;28;20143;-66
2024/03/18 03:17:40;;;;;;;2.22;0.85;;;;;;;6.00;75.40;101283.88;5058900;28;20498;-65
2024/03/18 03:20:08;;;;;;;0.63;0.63;;;;;;;5.98;76.12;101278.81;5059374;28;20043;-65
2024/03/18 03:22:34;;;;;;;5.85;0.70;;;;;;;5.95;76.13;101273.28;5055709;28;20024;-65
2024/03/18 03:25:00;;;;;;;0.70;0.70;;;;;;;6.05;76.62;101265.81;5053250;28;20037;-65
2024/03/18 03:27:27;;;;;;;0.28;0.28;;;;;;;6.12;75.30;101270.69;5069786;28;20041;-65
2024/03/18 03:29:53;;;;;;;1.23;0.77;;;;;;;6.19;74.56;101271.81;5048922;28;20037;-66
2024/03/18 03:32:18;;;;;;;0.93;0.77;;;;;;;6.09;75.21;101265.97;5052115;28;20379;-65
2024/03/18 03:34:44;;;;;;;0.82;0.82;;;;;;;6.11;75.26;101259.22;5055350;28;20295;-65
2024/03/18 03:37:10;;;;;;;0.70;0.70;;;;;;;6.14;74.91;101268.50;5051087;28;20042;-65
2024/03/18 03:39:38;;;;;;;0.63;0.63;;;;;;;6.02;75.57;101254.94;5069005;28;20032;-65
2024/03/18 03:42:04;;;;;;;0.50;0.50;;;;;;;6.07;75.49;101254.78;5053787;28;20060;-64
2024/03/18 03:44:30;;;;;;;0.50;0.50;;;;;;;6.08;75.26;101251.00;5052450;28;20041;-65
2024/03/18 03:46:56;;;;;;;0.70;0.35;;;;;;;5.87;75.48;101236.63;5052025;28;20029;-65
2024/03/18 03:49:22;;;;;;;8.75;0.70;;;;;;;6.00;75.56;101238.44;5054304;28;20531;-65
2024/03/18 03:51:47;;;;;;;2.20;0.75;;;;;;;5.94;75.88;101245.00;5070385;28;20027;-65
2024/03/18 03:54:14;;;;;;;1.15;0.85;;;;;;;5.95;76.49;101246.56;5049603;28;20450;-65
2024/03/18 03:56:39;;;;;;;0.80;0.80;;;;;;;5.97;76.96;101239.81;5048116;28;20039;-65
2024/03/18 03:59:04;;;;;;;1.17;0.40;;;;;;;6.12;74.76;101241.28;5050984;28;20566;-65
2024/03/18 04:01:30;;;;;;;1.25;0.90;;;;;;;5.97;75.19;101231.81;5051506;28;20031;-65
2024/03/18 04:03:56;;;;;;;1.02;0.93;;;;;;;5.97;75.82;101229.13;5062372;28;20028;-65
2024/03/18 04:06:22;;;;;;;0.70;0.70;;;;;;;6.01;75.66;101231.97;5068729;28;20025;-65
2024/03/18 04:08:50;;;;;;;0.80;0.80;;;;;;;5.99;74.83;101228.81;5053187;28;20029;-64
2024/03/18 04:11:16;;;;;;;0.90;0.80;;;;;;;6.07;75.64;101225.38;5067860;28;20536;-65
2024/03/18 04:13:41;;;;;;;0.80;0.30;;;;;;;6.12;75.25;101233.25;5052689;28;20025;-64
2024/03/18 04:16:07;;;;;;;1.02;0.93;;;;;;;5.95;75.27;101234.00;5053498;28;20143;-64
2024/03/18 04:18:35;;;;;;;5.43;0.85;;;;;;;6.11;75.61;101223.66;5052491;28;20028;-65
2024/03/18 04:21:03;;;;;;;0.68;0.57;;;;;;;6.31;74.32;101231.88;5051804;28;20041;-64
2024/03/18 04:23:29;;;;;;;0.88;0.77;;;;;;;6.35;74.24;101230.16;5066020;28;20231;-65
2024/03/18 04:25:57;;;;;;;1.55;0.80;;;;;;;6.35;73.97;101240.06;5052754;28;20029;-64
2024/03/18 04:28:22;;;;;;;1.98;0.98;;;;;;;6.36;73.82;101229.09;5050308;28;20052;-65
2024/03/18 04:30:48;;;;;;;1.13;1.02;;;;;;;6.24;74.13;101230.78;5050406;28;20037;-65
2024/03/18 04:33:13;;;;;;;3.00;1.02;;;;;;;6.22;74.33;101225.75;5051639;28;20099;-65
2024/03/18 04:35:39;;;;;;;0.82;0.68;;;;;;;6.38;73.72;101226.09;5063307;28;20527;-65
2024/03/18 04:38:05;;;;;;;0.93;0.68;;;;;;;6.15;74.55;101233.44;5049436;28;20024;-65
2024/03/18 04:40:30;;;;;;;1.10;1.00;;;;;;;6.13;74.62;101230.28;5064899;28;20129;-65
2024/03/18 04:42:56;;;;;;;0.60;0.60;;;;;;;6.08;75.33;101233.09;5050508;28;20040;-64
2024/03/18 04:45:22;;;;;;;0.57;0.57;;;;;;;6.08;74.54;101229.63;5051599;28;20498;-65
2024/03/18 04:47:53;;;;;;;0.75;0.60;;;;;;;6.11;75.32;101226.34;5051340;28;20016;-65
2024/03/18 04:50:20;;;;;;;4.25;0.77;;;;;;;6.12;74.45;101225.22;5050027;28;20037;-66
2024/03/18 04:52:46;;;;;;;0.68;0.60;;;;;;;6.23;74.38;101224.63;5053355;28;20037;-65
2024/03/18 04:55:12;;;;;;;1.48;0.88;;;;;;;5.92;75.18;101220.47;5062277;28;20055;-65
2024/03/18 04:57:38;;;;;;;0.77;0.77;;;;;;;5.97;76.03;101225.66;5049926;28;20512;-64
2024/03/18 05:00:07;;;;;;;1.88;0.90;;;;;;;6.04;75.11;101215.31;5049659;28;20039;-65
2024/03/18 05:02:32;;;;;;;0.98;0.50;;;;;;;6.10;75.40;101214.84;5049383;28;20028;-65
2024/03/18 05:04:58;;;;;;;0.65;0.60;;;;;;;5.93;75.40;101214.00;5050263;28;20766;-65
2024/03/18 05:07:23;;;;;;;1.50;0.95;;;;;;;5.85;76.65;101217.44;5050031;28;20123;-64
2024/03/18 05:09:53;;;;;;;1.95;1.02;;;;;;;5.87;76.10;101209.91;5065657;28;20509;-65
2024/03/18 05:12:19;;;;;;;0.70;0.70;;;;;;;5.86;76.47;101225.16;5052024;28;20068;-65
2024/03/18 05:14:44;;;;;;;1.35;1.10;;;;;;;6.04;75.87;101220.69;5075155;28;20474;-65
2024/03/18 05:17:10;;;;;;;0.80;0.80;;;;;;;6.04;75.37;101207.31;5062866;28;20692;-65
2024/03/18 05:19:35;;;;;;;2.70;1.00;;;;;;;5.98;74.93;101220.00;5074600;28;20032;-65
2024/03/18 05:22:01;;;;;;;1.35;1.00;;;;;;;5.86;75.03;101213.69;5068402;28;20494;-65
2024/03/18 05:24:26;;;;;;;0.80;0.63;;;;;;;5.92;75.53;101223.13;5037918;28;20056;-66
2024/03/18 05:26:52;;;;;;;1.95;0.93;;;;;;;5.84;76.81;101213.19;5057564;28;20041;-66
2024/03/18 05:29:18;;;;;;;1.17;1.08;;;;;;;5.82;77.04;101224.19;5058140;28;20383;-66
2024/03/18 05:31:45;;;;;;;1.38;0.80;;;;;;;5.98;75.89;101230.69;5057838;28;20025;-66
2024/03/18 05:34:11;;;;;;;1.00;0.73;;;;;;;5.99;74.97;101218.91;5058419;28;20086;-66
2024/03/18 05:36:36;;;;;;;0.73;0.70;;;;;;;6.02;74.71;101220.97;5059670;28;20032;-67
2024/03/18 05:39:03;;;;;;;4.50;1.08;;;;;;;5.88;74.87;101225.66;5055810;28;20090;-65
2024/03/18 05:41:29;;;;;;;3.13;1.88;;;;;;;5.89;75.75;101218.41;5057594;28;20083;-65
2024/03/18 05:43:54;;;;;;;0.70;0.70;;;;;;;5.80;75.80;101217.56;5054773;28;20068;-66
2024/03/18 05:46:23;;;;;;;1.48;1.10;;;;;;;5.91;76.25;101219.69;5053253;28;20038;-66
2024/03/18 05:48:51;;;;;;;1.35;0.82;;;;;;;5.99;75.22;101215.44;5062404;28;20131;-66
2024/03/18 05:51:17;;;;;;;3.17;1.02;;;;;;;5.96;75.04;101224.09;5067148;28;20040;-66
2024/03/18 05:53:42;;;;;;;0.73;0.73;;;;;;;5.71;76.02;101217.50;5049251;28;20238;-66
2024/03/18 05:56:08;;;;;;;0.90;0.70;;;;;;;5.56;77.37;101209.09;5072972;28;20467;-66
2024/03/18 05:58:39;;;;;;;2.85;0.90;;;;;;;5.74;76.51;101216.13;5055659;28;20042;-66
2024/03/18 06:01:10;;;;;;;1.33;0.82;;;;;;;5.78;75.81;101215.19;5049948;28;20032;-66
2024/03/18 06:03:40;;;;;;;1.30;1.20;;;;;;;5.88;76.07;101217.63;5050600;28;20036;-66
2024/03/18 06:06:07;;;;;;;0.47;0.47;;;;;;;5.58;75.96;101212.25;5053416;28;20036;-65
2024/03/18 06:08:36;;;;;;;1.23;1.05;;;;;;;5.52;77.61;101203.59;5056199;28;20036;-65
2024/03/18 06:11:02;;;;;;;1.48;0.75;;;;;;;5.73;76.58;101209.22;5049441;28;20505;-65
2024/03/18 06:13:28;;;;;;;3.22;1.27;;;;;;;5.79;76.45;101214.09;5065507;28;20033;-66
2024/03/18 06:15:54;;;;;;;1.35;1.25;;;;;;;5.80;76.66;101204.19;5049653;28;20394;-66
2024/03/18 06:18:20;;;;;;;2.25;1.52;;;;;;;5.92;76.63;101212.44;5047681;28;20041;-66
2024/03/18 06:20:49;;;;;;;2.05;1.00;;;;;;;6.01;76.77;101206.03;5052045;28;20033;-66
2024/03/18 06:23:16;;;;;;;1.38;0.82;;;;;;;6.03;77.44;101213.75;5049643;28;20025;-65
2024/03/18 06:25:58;;;;;;;0.77;0.77;;;;;;;6.17;76.62;101203.72;5049718;28;20040;-66
2024/03/18 06:28:31;;;;;;;0.98;0.88;;;;;;;6.34;75.25;101217.91;5048394;28;20063;-66
2024/03/18 06:30:57;;;;;;;0.80;0.68;;;;;;;6.34;75.09;101211.78;5064186;28;20033;-65
2024/03/18 06:33:24;;;;;;;0.75;0.70;;;;;;;6.35;75.19;101216.81;5031339;28;20028;-65
2024/03/18 06:35:53;;;;;;;1.15;0.90;;;;;;;6.31;75.29;101212.38;5048094;28;20447;-65
2024/03/18 06:38:20;;;;;;;1.45;0.88;;;;;;;6.48;73.68;101216.97;5046375;28;20557;-65
2024/03/18 06:40:46;;;;;;;1.55;0.88;;;;;;;6.25;74.61;101208.31;5058927;28;20478;-65
2024/03/18 06:43:11;;;;;;;1.15;1.05;;;;;;;6.29;73.97;101209.25;5047849;28;20036;-65
2024/03/18 06:45:37;;;;;;;1.10;1.00;;;;;;;6.29;73.52;101198.56;5047309;28;20442;-65
2024/03/18 06:48:03;;;;;;;2.75;1.55;;;;;;;6.25;74.31;101197.59;5049899;28;20029;-65
2024/03/18 06:50:35;;;;;;;1.25;1.00;;;;;;;6.47;73.11;101202.00;5045328;28;20040;-66
2024/03/18 06:53:01;;;;;;;1.75;1.08;;;;;;;6.49;73.33;101199.81;5064264;28;20417;-67
2024/03/18 06:55:30;;;;;;;2.95;1.00;;;;;;;6.36;73.66;101191.66;5065239;28;20055;-66
2024/03/18 06:57:55;;;;;;;1.55;1.05;;;;;;;6.33;73.21;101200.28;5051029;28;20033;-66
2024/03/18 07:00:23;;;;;;;1.40;0.95;;;;;;;6.05;74.53;101187.47;5048328;28;20078;-66
2024/03/18 07:02:52;;;;;;;1.58;0.73;;;;;;;6.11;75.34;101184.38;5065849;28;20021;-66
2024/03/18 07:05:19;;;;;;;1.60;1.02;;;;;;;6.40;73.59;101189.13;5048431;28;20060;-66
2024/03/18 07:07:45;;;;;;;0.73;0.73;;;;;;;6.28;73.69;101188.94;5033273;28;20029;-66
2024/03/18 07:10:11;;;;;;;1.08;0.80;;;;;;;6.41;74.19;101193.38;5049309;28;20031;-66
2024/03/18 07:12:41;;;;;;;0.95;0.93;;;;;;;6.64;72.94;101189.44;5064214;28;20083;-66
2024/03/18 07:15:08;;;;;;;2.15;1.50;;;;;;;6.71;72.92;101192.44;5049147;28;20033;-67
2024/03/18 07:17:35;;;;;;;0.88;0.88;;;;;;;6.69;71.60;101188.50;5047093;28;20556;-66
2024/03/18 07:20:06;;;;;;;1.65;1.17;;;;;;;6.79;71.43;101182.84;5049090;28;20056;-66
2024/03/18 07:22:32;;;;;;;0.70;0.70;;;;;;;6.69;72.61;101183.94;5052795;28;20115;-66
2024/03/18 07:24:59;;;;;;;0.98;0.90;;;;;;;6.83;71.84;101189.91;5066561;28;20025;-66
2024/03/18 07:27:25;;;;;;;1.40;1.30;;;;;;;7.06;70.88;101187.84;5049403;28;20037;-67
2024/03/18 07:29:53;;;;;;;1.88;1.25;;;;;;;7.08;70.13;101188.31;5065262;28;20147;-65
2024/03/18 07:32:19;;;;;;;1.25;0.68;;;;;;;6.95;70.86;101187.38;5051335;28;20047;-66
2024/03/18 07:34:45;;;;;;;5.05;1.38;;;;;;;7.09;70.43;101182.66;5031920;28;20545;-66
2024/03/18 07:37:10;;;;;;;1.58;1.20;;;;;;;6.99;69.74;101180.28;5045081;28;20037;-66
2024/03/18 07:39:36;;;;;;;0.80;0.70;;;;;;;6.95;70.45;101179.34;5065164;28;20056;-66
2024/03/18 07:42:02;;;;;;;2.65;1.17;;;;;;;6.97;71.00;101179.81;5047406;28;20581;-65
2024/03/18 07:44:27;;;;;;;1.05;0.82;;;;;;;6.91;70.56;101186.44;5046030;28;20044;-64
2024/03/18 07:46:53;;;;;;;1.30;1.20;;;;;;;6.67;71.93;101174.66;5046491;28;20029;-64
2024/03/18 07:49:18;;;;;;;3.25;1.27;;;;;;;6.73;72.47;101173.41;5051285;28;20409;-64
2024/03/18 07:51:46;;;;;;;2.35;1.02;;;;;;;7.00;71.46;101183.75;5063173;28;20025;-65
2024/03/18 07:54:11;;;;;;;1.35;0.80;;;;;;;7.02;70.69;101179.69;5051438;28;20047;-65
2024/03/18 07:56:37;;;;;;;6.03;1.38;;;;;;;7.17;69.92;101173.81;5051667;28;20037;-65
2024/03/18 07:59:02;;;;;;;8.18;1.30;;;;;;;7.11;70.24;101180.44;5052997;28;20478;-65
2024/03/18 08:01:28;;;;;;;0.55;0.55;;;;;;;6.91;71.41;101178.41;5053423;28;20494;-66
2024/03/18 08:03:54;;;;;;;2.80;1.30;;;;;;;6.99;70.99;101185.66;5055985;28;20056;-65
2024/03/18 08:06:19;;;;;;;1.95;1.17;;;;;;;7.02;70.75;101184.22;5050938;28;20056;-66
2024/03/18 08:08:45;;;;;;;3.65;0.88;;;;;;;7.22;70.04;101195.06;5052997;28;20024;-65
2024/03/18 08:11:10;;;;;;;2.10;1.17;;;;;;;7.38;68.38;101189.19;5051787;28;20119;-65
2024/03/18 08:13:36;;;;;;;0.60;0.60;;;;;;;7.37;69.19;101182.25;5063833;28;20033;-66
2024/03/18 08:16:02;;;;;;;4.85;1.70;;;;;;;7.37;69.30;101185.75;5049891;28;20095;-65
2024/03/18 08:18:27;;;;;;;1.25;1.00;;;;;;;7.41;69.07;101188.56;5052080;28;20575;-65
2024/03/18 08:20:54;;;;;;;5.88;1.40;;;;;;;7.44;69.86;101199.41;5051383;28;20410;-65
2024/03/18 08:23:19;;;;;;;1.27;0.95;;;;;;;7.50;69.22;101208.06;5052727;28;20044;-65
2024/03/18 08:25:44;;;;;;;4.03;1.73;;;;;;;7.57;68.49;101187.69;5052631;28;20045;-65
2024/03/18 08:28:10;;;;;;;2.47;0.80;;;;;;;7.59;68.00;101190.09;5046438;28;20049;-64
2024/03/18 08:30:35;;;;;;;3.42;1.38;;;;;;;7.82;67.86;101194.84;5052853;28;20136;-65
2024/03/18 08:33:01;;;;;;;1.50;1.35;;;;;;;8.13;66.92;101192.63;5051562;28;20095;-66
2024/03/18 08:35:27;;;;;;;4.22;1.27;;;;;;;8.27;67.05;101188.94;5050389;28;20095;-65
2024/03/18 08:37:52;;;;;;;2.88;1.30;;;;;;;8.41;66.07;101200.22;5069066;28;20037;-65
2024/03/18 08:40:18;;;;;;;2.25;1.40;;;;;;;8.76;65.09;101199.66;5052330;28;20040;-65
2024/03/18 08:42:43;;;;;;;2.05;1.20;;;;;;;9.06;63.61;101195.75;5039985;28;20079;-64
2024/03/18 08:45:09;;;;;;;2.95;1.25;;;;;;;9.26;61.48;101196.81;5052267;28;20036;-65
2024/03/18 08:47:35;;;;;;;6.35;1.35;;;;;;;9.34;62.55;101189.78;5050091;28;20084;-65
2024/03/18 08:50:00;;;;;;;0.40;0.40;;;;;;;9.52;60.53;101201.91;5051746;28;20120;-65
2024/03/18 08:52:26;;;;;;;1.23;1.13;;;;;;;9.33;60.39;101193.59;5058110;28;20037;-65
2024/03/18 08:54:51;;;;;;;1.92;1.15;;;;;;;9.21;60.25;101205.09;5069926;28;20039;-65
2024/03/18 08:57:18;;;;;;;2.25;1.38;;;;;;;9.07;61.04;101186.59;5032085;28;20698;-65
2024/03/18 08:59:44;;;;;;;2.05;1.23;;;;;;;8.87;62.07;101194.66;5051632;28;20082;-68
2024/03/18 09:02:10;;;;;;;1.40;1.30;;;;;;;8.87;62.54;101195.44;5055776;28;20037;-65
2024/03/18 09:04:35;;;;;;;3.33;1.33;;;;;;;8.91;62.21;101204.41;5052351;28;20032;-64
2024/03/18 09:07:00;;;;;;;1.60;1.27;;;;;;;8.68;62.39;101187.09;5050430;28;20036;-65
2024/03/18 09:09:27;;;;;;;2.35;0.98;;;;;;;8.74;63.17;101185.78;5052257;28;20045;-65
2024/03/18 09:11:53;;;;;;;3.42;1.23;;;;;;;8.65;63.20;101198.47;5052328;28;20595;-65
2024/03/18 09:14:18;;;;;;;3.22;1.48;;;;;;;8.58;63.01;101182.09;5050387;28;20037;-65
2024/03/18 09:16:44;;;;;;;2.50;1.00;;;;;;;8.69;63.12;101191.31;5050313;28;20508;-65
2024/03/18 09:19:10;;;;;;;5.38;1.40;;;;;;;8.80;62.37;101192.53;5048963;28;20052;-65
2024/03/18 09:21:36;;;;;;;2.88;1.60;;;;;;;8.71;62.75;101188.34;5051414;28;20114;-64
2024/03/18 09:24:02;;;;;;;2.58;1.27;;;;;;;8.74;62.88;101196.50;5049499;28;20040;-65
2024/03/18 09:26:28;;;;;;;2.92;1.25;;;;;;;8.59;63.91;101185.59;5051735;28;20032;-65
2024/03/18 09:28:53;;;;;;;2.30;1.30;;;;;;;8.46;64.16;101187.41;5049524;28;20036;-65
2024/03/18 09:31:19;;;;;;;2.60;1.20;;;;;;;8.67;63.93;101190.88;5048616;28;20128;-66
2024/03/18 09:33:44;;;;;;;0.95;0.90;;;;;;;8.76;64.13;101196.97;5052895;28;20029;-66
2024/03/18 09:36:09;;;;;;;7.18;1.02;;;;;;;8.76;64.47;101196.19;5049288;28;20452;-66
2024/03/18 09:38:35;;;;;;;1.20;0.88;;;;;;;8.87;64.82;101192.75;5049497;28;20120;-64
2024/03/18 09:41:07;;;;;;;1.10;1.02;;;;;;;8.99;63.18;101187.44;5049822;28;20036;-65
2024/03/18 09:43:33;;;;;;;2.08;1.13;;;;;;;8.97;63.30;101191.56;5049275;28;20098;-64
2024/03/18 09:46:04;;;;;;;6.78;1.52;;;;;;;9.04;63.33;101191.81;5066432;28;20521;-66
2024/03/18 09:48:32;;;;;;;1.20;0.40;;;;;;;9.02;63.05;101200.19;5049294;28;20513;-65
2024/03/18 09:51:03;;;;;;;1.20;1.10;;;;;;;9.19;61.56;101198.47;5059021;28;20035;-66
2024/03/18 09:53:30;;;;;;;3.08;1.70;;;;;;;9.08;61.29;101196.19;5066570;28;20121;-65
2024/03/18 09:55:56;;;;;;;2.50;1.25;;;;;;;9.03;61.67;101198.31;5063716;28;20116;-68
2024/03/18 09:58:22;;;;;;;1.85;1.15;;;;;;;9.04;62.44;101191.81;5062785;28;20417;-66
2024/03/18 10:00:47;;;;;;;2.50;1.38;;;;;;;9.22;62.67;101195.09;5055039;28;20032;-65
2024/03/18 10:03:17;;;;;;;1.38;1.27;;;;;;;9.16;62.12;101193.75;5048920;28;20024;-66
2024/03/18 10:05:45;;;;;;;3.58;1.52;;;;;;;9.07;61.62;101194.63;5050896;28;20486;-65
2024/03/18 10:08:13;;;;;;;2.05;1.30;;;;;;;9.17;62.51;101184.59;5053657;28;20045;-65
2024/03/18 10:10:39;;;;;;;2.75;1.75;;;;;;;9.37;60.98;101194.50;5060997;28;20090;-66
2024/03/18 10:13:07;;;;;;;2.10;1.25;;;;;;;9.14;62.09;101187.94;5070996;28;20029;-66
2024/03/18 10:15:32;;;;;;;2.13;1.08;;;;;;;9.10;62.54;101193.97;5067453;28;20483;-65
2024/03/18 10:17:58;;;;;;;1.70;0.95;;;;;;;9.29;61.43;101182.69;5053378;28;20064;-66
2024/03/18 10:20:24;;;;;;;2.47;1.23;;;;;;;9.30;61.08;101194.25;5071850;28;20094;-67
2024/03/18 10:22:54;;;;;;;3.58;1.30;;;;;;;9.27;62.27;101192.22;5051609;28;20486;-66
2024/03/18 10:25:21;;;;;;;1.17;0.90;;;;;;;9.36;60.39;101195.59;5049615;28;20497;-65
2024/03/18 10:27:51;;;;;;;2.33;1.27;;;;;;;9.21;61.73;101180.91;5053837;28;20052;-65
2024/03/18 10:30:17;;;;;;;4.40;1.40;;;;;;;9.35;61.14;101191.34;5048021;28;20094;-65
2024/03/18 10:32:44;;;;;;;0.85;0.85;;;;;;;9.35;61.81;101181.38;5052061;28;20036;-64
2024/03/18 10:35:23;;;;;;;2.28;1.52;;;;;;;9.38;61.67;101193.38;5051283;28;20037;-64
2024/03/18 10:37:56;;;;;;;2.10;1.17;;;;;;;9.36;62.14;101185.63;5056086;28;20028;-65
2024/03/18 10:40:33;;;;;;;2.05;1.02;;;;;;;9.38;62.16;101188.00;5049703;28;20086;-65
2024/03/18 10:43:01;;;;;;;4.10;1.38;;;;;;;9.47;61.41;101186.78;5047009;28;20536;-66
2024/03/18 10:45:28;;;;;;;2.45;1.10;;;;;;;9.62;61.81;101190.72;5068386;28;20132;-65
2024/03/18 10:48:02;;;;;;;2.42;1.20;;;;;;;9.63;61.36;101182.31;5050765;28;20025;-67
2024/03/18 10:50:28;;;;;;;1.85;1.20;;;;;;;9.83;59.87;101177.97;5050627;28;20037;-66
2024/03/18 10:52:54;;;;;;;2.15;1.23;;;;;;;9.72;60.14;101180.31;5066559;28;20040;-67
2024/03/18 10:55:22;;;;;;;3.60;1.10;;;;;;;9.73;59.85;101181.09;5051216;28;20036;-66
2024/03/18 10:57:50;;;;;;;2.70;1.48;;;;;;;9.74;60.45;101174.59;5041532;28;20032;-66
2024/03/18 11:00:18;;;;;;;7.97;1.27;;;;;;;9.59;60.51;101170.66;5056281;28;20040;-67
2024/03/18 11:03:14;;;;;;;1.00;0.90;;;;;;;9.78;60.43;101173.59;5050738;28;20025;-67
2024/03/18 11:05:57;;;;;;;2.67;1.30;;;;;;;10.04;60.27;101165.16;5067543;28;20128;-66
2024/03/18 11:08:25;;;;;;;1.77;1.42;;;;;;;10.08;61.02;101166.06;5049589;28;20048;-66
2024/03/18 11:10:55;;;;;;;3.60;1.35;;;;;;;10.14;58.66;101169.34;5048275;28;20029;-66
2024/03/18 11:13:32;;;;;;;6.18;1.10;;;;;;;10.15;58.20;101169.00;5048154;28;20040;-66
2024/03/18 11:16:03;;;;;;;1.45;1.17;;;;;;;10.14;57.20;101159.38;5047797;28;20047;-66
2024/03/18 11:18:29;;;;;;;2.20;1.13;;;;;;;10.03;57.91;101164.38;5061588;28;20025;-66
2024/03/18 11:20:59;;;;;;;1.95;1.35;;;;;;;9.91;58.46;101175.16;5064791;28;20513;-66
2024/03/18 11:23:31;;;;;;;2.77;1.27;;;;;;;10.22;57.50;101173.81;5062909;28;20056;-66
2024/03/18 11:26:08;;;;;;;1.50;1.00;;;;;;;10.30;57.83;101173.66;5045942;28;20059;-66
2024/03/18 11:28:35;;;;;;;4.43;1.10;;;;;;;10.33;58.06;101183.00;5034939;28;20541;-66
2024/03/18 11:31:14;;;;;;;2.00;1.27;;;;;;;10.36;57.28;101176.91;5049803;28;20074;-70
2024/03/18 11:33:40;;;;;;;6.60;2.22;;;;;;;10.51;56.01;101176.97;5051494;28;20145;-66
2024/03/18 11:36:07;;;;;;;2.78;1.33;;;;;;;10.59;55.63;101176.06;5053542;28;20483;-67